Airfield :
LOGIN :

Register | Disclaimer

   EN    FR    IT 

 










Legend :    VFR   Marginal VFR   IFR   Intensive IFR   Very Intensive IFR
Visi :
Ceiling :
>= 8 km
>= 3000ft
5 to 8 km
1000 to 3000 ft
1500m to 5 km
500 to 1000 ft
800 to 1500m
200 to 500 ft
< 800m
< 200 ft
Symbols :   Thunderstorms  Fog  Heavy snow  Heavy precipitations  Wind > 20 kt
SIGMETs :     Misc.  Thunderstorms  Icing  Turbulence  Mountain Waves  Volcanic Ashes







- Airport Elevation : 622 ft
- IATA code : BRS
- Download approach charts


EGGD - Bristol Int.

CURRENT METAR :
  • 182050Z AUTO 02004KT 350V050 9999 FEW005 SCT034 OVC043 08/08 Q1022

EXPIRED METARs :
  • 182020Z AUTO 01006KT 7000 -RA BKN003/// BKN015/// OVC023/// //////TCU 08/08 Q1021 RERA REDZ
  • 181950Z AUTO 02007KT 3800 RADZ BKN003 OVC011 09/09 Q1021
  • 181920Z 36009KT 300V030 9999 3000S -DZ FEW001 BKN002 09/09 Q1021 RERA
  • 181850Z AUTO 29007KT 0200 R27/P1500 FG OVC001/// //////TCU 10/10 Q1021
  • 181820Z 28011KT 1800 -RADZ BR SCT001 BKN002 10/10 Q1021

TAF AMD TAF EGGD
Valid from the 18 at 20:00 until the 19 at 18:00 UTC


182014Z 1820/1918 26016KT 2000 DZ BKN002
BECMG 1820/1823 VRB03KT 9999 NSW SCT015
BECMG 1912/1915 19010KT
ATIS : +44 1275 473 666
No reported NOTAMs for that airfield.



MET'MAP, your aeronautical weather chart ! - Copyright ORBIFLY December 2007 - Disclaimer

ORBIFLY MET'MAP TEAM :

Programming & Development : Alexandra Zaïnal
Concept & Development : Baudouin d'Aumeries
Co-Development & Prog : Marc-Olivier Méhu
Technical & hardware support : Manuel Goepfert

Contact : metmap@orbifly.com




SOURCES & CREDITS :

   NOAA